Time;durP1;ratioP1;P1;durP2;ratioP2;P2;SDS_P1;SDS_P2;PMS_P1;PMS_P2;Temp;Humidity;BMP_temperature;BMP_pressure;BME280_temperature;BME280_humidity;BME280_pressure;Samples;Min_cycle;Max_cycle;Signal;HPM_P1;HPM_P2
2023/01/17 00:00:12;;;;;;;;;;;3.80;99.90;;;;;;5050349;28;19944;-59
2023/01/17 00:02:37;;;;;;;;;;;3.70;99.90;;;;;;5047290;28;19986;-60
2023/01/17 00:10:31;;;;;;;;;;;3.50;99.90;;;;;;5049676;28;20347;-60
2023/01/17 00:12:58;;;;;;;;;;;3.50;99.90;;;;;;5050038;28;19916;-61
2023/01/17 00:15:24;;;;;;;;;;;3.60;99.90;;;;;;5046168;28;21606;-59
2023/01/17 00:17:50;;;;;;;;;;;3.60;99.90;;;;;;5048871;28;20401;-60
2023/01/17 00:26:03;;;;;;;;;;;3.80;99.90;;;;;;5046958;28;19954;-59
2023/01/17 01:35:09;;;;;;;;;;;3.90;99.90;;;;;;5049061;28;19924;-60
2023/01/17 01:37:34;;;;;;;;;;;3.80;99.90;;;;;;5053693;28;19913;-61
2023/01/17 01:40:00;;;;;;;;;;;3.80;99.90;;;;;;5051264;28;19913;-61
2023/01/17 01:42:25;;;;;;;;;;;3.80;99.90;;;;;;5051064;28;19916;-58
2023/01/17 01:44:52;;;;;;;;;;;3.80;99.90;;;;;;5050539;28;19923;-60
2023/01/17 01:47:35;;;;;;;;;;;3.80;99.90;;;;;;5050277;28;19923;-60
2023/01/17 01:50:03;;;;;;;;;;;3.80;99.90;;;;;;5048835;28;19913;-60
2023/01/17 01:52:30;;;;;;;;;;;3.70;99.90;;;;;;5046653;28;19920;-58
2023/01/17 01:55:01;;;;;;;;;;;3.80;99.90;;;;;;5048102;28;19917;-60
2023/01/17 01:57:29;;;;;;;;;;;3.70;99.90;;;;;;5049896;28;20001;-59
2023/01/17 01:59:57;;;;;;;;;;;3.70;99.90;;;;;;5050980;28;20393;-59
2023/01/17 02:02:23;;;;;;;;;;;3.70;99.90;;;;;;5048766;28;19913;-60
2023/01/17 02:04:49;;;;;;;;;;;3.70;99.90;;;;;;5047883;28;20378;-59
2023/01/17 02:07:18;;;;;;;;;;;3.80;99.90;;;;;;5047813;28;19912;-60
2023/01/17 02:09:44;;;;;;;;;;;3.70;99.90;;;;;;5049408;28;19919;-61
2023/01/17 02:12:09;;;;;;;;;;;3.70;99.90;;;;;;5050638;28;19916;-57
2023/01/17 02:14:35;;;;;;;;;;;3.60;99.90;;;;;;5050978;28;19921;-58
2023/01/17 02:17:06;;;;;;;;;;;3.50;99.90;;;;;;5049192;28;19973;-59
2023/01/17 02:19:44;;;;;;;;;;;3.60;99.90;;;;;;5051725;28;19917;-57
2023/01/17 02:22:24;;;;;;;;;;;3.60;99.90;;;;;;5050476;28;19921;-62
2023/01/17 02:25:05;;;;;;;;;;;3.60;99.90;;;;;;5050847;28;19913;-60
2023/01/17 02:27:46;;;;;;;;;;;3.60;99.90;;;;;;5048141;28;19952;-60
2023/01/17 02:30:26;;;;;;;;;;;3.70;99.90;;;;;;5045779;28;19955;-59
2023/01/17 02:32:56;;;;;;;;;;;3.60;99.90;;;;;;5049573;28;19917;-60
2023/01/17 02:35:24;;;;;;;;;;;3.70;99.90;;;;;;5047441;28;19943;-60
2023/01/17 02:38:02;;;;;;;;;;;3.70;99.90;;;;;;5048496;28;19929;-61
2023/01/17 02:40:42;;;;;;;;;;;3.70;99.90;;;;;;5043925;28;19924;-61
2023/01/17 02:43:10;;;;;;;;;;;3.70;99.90;;;;;;5048730;28;19917;-61
2023/01/17 02:45:36;;;;;;;;;;;3.70;99.90;;;;;;5047616;28;19921;-58
2023/01/17 02:48:02;;;;;;;;;;;3.50;99.90;;;;;;5051553;28;20622;-57
2023/01/17 02:50:38;;;;;;;;;;;3.40;99.90;;;;;;5048763;28;19909;-60
2023/01/17 02:53:28;;;;;;;;;;;3.20;99.90;;;;;;5046232;28;19963;-59
2023/01/17 02:56:03;;;;;;;;;;;3.20;99.90;;;;;;5048044;28;19908;-60
2023/01/17 02:58:38;;;;;;;;;;;3.30;99.90;;;;;;5050012;28;20027;-60
2023/01/17 03:01:06;;;;;;;;;;;3.30;99.90;;;;;;5048160;28;19913;-61
2023/01/17 03:03:42;;;;;;;;;;;3.30;99.90;;;;;;5050410;28;19920;-58
2023/01/17 03:06:10;;;;;;;;;;;3.30;99.90;;;;;;5049915;28;19912;-59
2023/01/17 03:08:40;;;;;;;;;;;3.30;99.90;;;;;;5052299;28;19909;-61
2023/01/17 03:11:09;;;;;;;;;;;3.30;99.90;;;;;;5049287;28;20329;-59
2023/01/17 03:13:34;;;;;;;;;;;3.30;99.90;;;;;;5043024;28;19913;-58
2023/01/17 03:16:01;;;;;;;;;;;3.30;99.90;;;;;;5047890;28;20000;-58
2023/01/17 03:18:26;;;;;;;;;;;3.30;99.90;;;;;;5051430;28;19913;-59
2023/01/17 03:20:52;;;;;;;;;;;3.30;99.90;;;;;;5053922;28;19954;-57
2023/01/17 03:23:17;;;;;;;;;;;3.30;99.90;;;;;;5050872;28;19962;-59
2023/01/17 03:25:43;;;;;;;;;;;3.40;99.90;;;;;;5049115;28;19923;-59
2023/01/17 03:28:08;;;;;;;;;;;3.40;99.90;;;;;;5047783;28;20015;-56
2023/01/17 03:30:34;;;;;;;;;;;3.40;99.90;;;;;;5049079;28;20429;-58
2023/01/17 03:32:59;;;;;;;;;;;3.40;99.90;;;;;;5049700;28;19923;-60
2023/01/17 03:35:27;;;;;;;;;;;3.40;99.90;;;;;;5048715;28;20039;-59
2023/01/17 03:37:52;;;;;;;;;;;3.40;99.90;;;;;;5047970;28;19924;-59
2023/01/17 03:40:18;;;;;;;;;;;3.40;99.90;;;;;;5050702;28;19908;-62
2023/01/17 03:42:43;;;;;;;;;;;3.40;99.90;;;;;;5072003;22;19924;-80
2023/01/17 03:45:09;;;;;;;;;;;3.40;99.90;;;;;;5081995;28;19916;-82
2023/01/17 03:47:35;;;;;;;;;;;3.40;99.90;;;;;;5094839;28;19975;-84
2023/01/17 03:50:00;;;;;;;;;;;3.40;99.90;;;;;;5058831;28;19984;-84
2023/01/17 03:52:29;;;;;;;;;;;3.40;99.90;;;;;;5059625;28;19972;-85
2023/01/17 03:54:54;;;;;;;;;;;3.40;99.90;;;;;;5053561;28;20024;-85
2023/01/17 03:57:20;;;;;;;;;;;3.30;99.90;;;;;;5061348;28;19913;-85
2023/01/17 03:59:46;;;;;;;;;;;3.40;99.90;;;;;;5064019;28;19913;-84
2023/01/17 04:02:11;;;;;;;;;;;3.40;99.90;;;;;;5064582;28;19948;-83
2023/01/17 04:04:37;;;;;;;;;;;3.40;99.90;;;;;;5073378;28;19932;-87
2023/01/17 04:07:02;;;;;;;;;;;3.30;99.90;;;;;;5060112;28;19972;-83
2023/01/17 04:09:32;;;;;;;;;;;3.30;99.90;;;;;;5064669;28;19913;-85
2023/01/17 04:12:01;;;;;;;;;;;3.30;99.90;;;;;;5063564;28;20309;-84
2023/01/17 04:14:27;;;;;;;;;;;3.40;99.90;;;;;;5071567;28;19913;-83
2023/01/17 04:16:52;;;;;;;;;;;3.40;99.90;;;;;;5060743;28;19948;-84
2023/01/17 04:19:18;;;;;;;;;;;3.40;99.90;;;;;;5062094;28;19955;-83
2023/01/17 04:21:44;;;;;;;;;;;3.40;99.90;;;;;;5069703;28;19916;-81
2023/01/17 04:24:09;;;;;;;;;;;3.40;99.90;;;;;;5051077;28;19924;-83
2023/01/17 04:26:34;;;;;;;;;;;3.40;99.90;;;;;;5060987;28;19970;-82
2023/01/17 04:29:00;;;;;;;;;;;3.40;99.90;;;;;;5047095;28;20351;-83
2023/01/17 04:31:26;;;;;;;;;;;3.40;99.90;;;;;;5058788;28;19901;-83
2023/01/17 04:33:51;;;;;;;;;;;3.40;99.90;;;;;;5059443;28;20345;-84
2023/01/17 04:36:17;;;;;;;;;;;3.40;99.90;;;;;;5048746;28;19909;-83
2023/01/17 04:38:42;;;;;;;;;;;3.30;99.90;;;;;;5093935;28;19934;-85
2023/01/17 04:41:08;;;;;;;;;;;3.40;99.90;;;;;;5059454;28;19915;-85
2023/01/17 04:43:33;;;;;;;;;;;3.30;99.90;;;;;;5064923;28;19917;-84
2023/01/17 04:45:59;;;;;;;;;;;3.30;99.90;;;;;;5065720;28;19923;-83
2023/01/17 04:48:26;;;;;;;;;;;3.30;99.90;;;;;;5058987;28;20316;-84
2023/01/17 04:50:57;;;;;;;;;;;3.30;99.90;;;;;;5063537;28;19916;-83
2023/01/17 04:53:23;;;;;;;;;;;3.30;99.90;;;;;;5089440;28;19913;-83
2023/01/17 04:55:48;;;;;;;;;;;3.30;99.90;;;;;;5057785;28;19909;-86
2023/01/17 04:58:14;;;;;;;;;;;3.30;99.90;;;;;;5059919;28;19913;-82
2023/01/17 05:00:39;;;;;;;;;;;3.20;99.90;;;;;;5057388;28;19921;-82
2023/01/17 05:03:06;;;;;;;;;;;3.20;99.90;;;;;;5062762;28;20350;-84
2023/01/17 05:05:31;;;;;;;;;;;3.30;99.90;;;;;;5058509;28;19928;-85
2023/01/17 05:07:57;;;;;;;;;;;3.30;99.90;;;;;;5061616;28;19916;-82
2023/01/17 05:10:23;;;;;;;;;;;3.30;99.90;;;;;;5049911;28;19928;-85
2023/01/17 05:12:55;;;;;;;;;;;3.30;99.90;;;;;;5063188;28;19999;-82
2023/01/17 05:15:21;;;;;;;;;;;3.20;99.90;;;;;;5054509;28;19967;-84
2023/01/17 05:17:46;;;;;;;;;;;3.20;99.90;;;;;;5070773;28;19913;-85
2023/01/17 05:20:12;;;;;;;;;;;3.20;99.90;;;;;;5060133;28;19940;-85
2023/01/17 05:22:37;;;;;;;;;;;3.10;99.90;;;;;;5068532;28;19916;-85
2023/01/17 05:25:03;;;;;;;;;;;3.10;99.90;;;;;;5072308;28;19928;-84
2023/01/17 05:27:28;;;;;;;;;;;3.10;99.90;;;;;;5068061;28;20204;-84
2023/01/17 05:29:54;;;;;;;;;;;3.10;99.90;;;;;;5067960;28;19913;-84
2023/01/17 05:32:19;;;;;;;;;;;3.00;99.90;;;;;;5065721;28;19913;-86
2023/01/17 05:34:45;;;;;;;;;;;3.00;99.90;;;;;;5063814;28;19972;-85
2023/01/17 05:37:10;;;;;;;;;;;3.00;99.90;;;;;;5065245;28;19951;-84
2023/01/17 05:39:36;;;;;;;;;;;3.10;99.90;;;;;;5063601;28;19913;-85
2023/01/17 05:42:02;;;;;;;;;;;3.00;99.90;;;;;;5062305;28;19917;-85
2023/01/17 05:44:27;;;;;;;;;;;2.90;99.90;;;;;;5064249;28;20310;-86
2023/01/17 05:46:53;;;;;;;;;;;2.90;99.90;;;;;;5070950;28;19912;-84
2023/01/17 05:49:19;;;;;;;;;;;2.90;99.90;;;;;;5063666;28;19935;-84
2023/01/17 05:51:44;;;;;;;;;;;3.00;99.90;;;;;;5065922;28;19921;-84
2023/01/17 05:54:09;;;;;;;;;;;2.90;99.90;;;;;;5054404;28;19917;-86
2023/01/17 05:56:35;;;;;;;;;;;2.80;99.90;;;;;;5064934;28;20293;-84
2023/01/17 05:59:00;;;;;;;;;;;2.80;99.90;;;;;;5065325;28;19913;-86
2023/01/17 06:01:26;;;;;;;;;;;2.80;99.90;;;;;;5060890;28;19913;-88
2023/01/17 06:03:52;;;;;;;;;;;2.90;99.90;;;;;;5060643;28;19920;-84
2023/01/17 06:06:19;;;;;;;;;;;2.90;99.90;;;;;;5066501;28;19908;-86
2023/01/17 06:08:45;;;;;;;;;;;2.90;99.90;;;;;;5055536;28;19912;-87
2023/01/17 06:11:10;;;;;;;;;;;2.90;99.90;;;;;;5057966;28;20284;-84
2023/01/17 06:13:36;;;;;;;;;;;2.90;99.90;;;;;;5054877;28;19989;-81
2023/01/17 06:16:02;;;;;;;;;;;2.90;99.90;;;;;;5057632;28;19917;-84
2023/01/17 06:18:29;;;;;;;;;;;2.80;99.90;;;;;;5059864;28;20011;-81
2023/01/17 06:20:54;;;;;;;;;;;2.80;99.90;;;;;;5057413;28;19924;-83
2023/01/17 06:23:20;;;;;;;;;;;2.90;99.90;;;;;;5060222;28;19913;-84
2023/01/17 06:25:46;;;;;;;;;;;2.80;99.90;;;;;;5057189;28;19954;-84
2023/01/17 06:28:13;;;;;;;;;;;2.70;99.90;;;;;;5062451;28;19936;-83
2023/01/17 06:30:39;;;;;;;;;;;2.70;99.90;;;;;;5058253;28;20313;-88
2023/01/17 06:33:05;;;;;;;;;;;2.60;99.90;;;;;;5056462;28;20012;-85
2023/01/17 06:35:31;;;;;;;;;;;2.60;99.90;;;;;;5058187;28;20285;-84
2023/01/17 06:37:58;;;;;;;;;;;2.60;99.90;;;;;;5061942;28;19913;-81
2023/01/17 06:40:24;;;;;;;;;;;2.60;99.90;;;;;;5057490;28;19952;-82
2023/01/17 06:42:50;;;;;;;;;;;2.60;99.90;;;;;;5061466;28;20211;-84
2023/01/17 06:45:15;;;;;;;;;;;2.60;99.90;;;;;;5064502;28;19931;-82
2023/01/17 06:47:41;;;;;;;;;;;2.50;99.90;;;;;;5062858;28;19916;-82
2023/01/17 06:50:08;;;;;;;;;;;2.50;99.90;;;;;;5064758;28;19913;-83
2023/01/17 06:52:33;;;;;;;;;;;2.50;99.90;;;;;;5052211;28;19963;-82
2023/01/17 06:54:59;;;;;;;;;;;2.50;99.90;;;;;;5062225;28;19916;-82
2023/01/17 06:57:24;;;;;;;;;;;2.50;99.90;;;;;;5057030;28;19920;-82
2023/01/17 06:59:50;;;;;;;;;;;2.50;99.90;;;;;;5063501;28;19916;-81
2023/01/17 07:02:15;;;;;;;;;;;2.40;99.90;;;;;;5062571;28;19966;-80
2023/01/17 07:04:41;;;;;;;;;;;2.40;99.90;;;;;;5061268;28;19917;-82
2023/01/17 07:07:06;;;;;;;;;;;2.30;99.90;;;;;;5066118;28;19919;-82
2023/01/17 07:09:31;;;;;;;;;;;2.30;99.90;;;;;;5061901;28;19912;-84
2023/01/17 07:12:00;;;;;;;;;;;2.30;99.90;;;;;;5060486;28;19984;-85
2023/01/17 07:14:29;;;;;;;;;;;2.30;99.90;;;;;;5060351;28;20582;-83
2023/01/17 07:16:55;;;;;;;;;;;2.20;99.90;;;;;;5056344;28;19913;-83
2023/01/17 07:19:21;;;;;;;;;;;2.10;99.90;;;;;;5059216;28;19916;-84
2023/01/17 07:21:49;;;;;;;;;;;2.10;99.90;;;;;;5060736;28;19913;-83
2023/01/17 07:24:14;;;;;;;;;;;2.10;99.90;;;;;;5058319;28;20490;-82
2023/01/17 07:26:40;;;;;;;;;;;2.00;99.90;;;;;;5060105;28;19919;-83
2023/01/17 07:29:05;;;;;;;;;;;2.00;99.90;;;;;;5057777;28;20008;-82
2023/01/17 07:31:35;;;;;;;;;;;2.50;99.90;;;;;;5053236;28;19917;-81
2023/01/17 07:34:01;;;;;;;;;;;2.40;99.90;;;;;;5057622;28;19915;-83
2023/01/17 07:36:27;;;;;;;;;;;2.30;99.90;;;;;;5058796;28;20293;-82
2023/01/17 07:38:53;;;;;;;;;;;2.30;99.90;;;;;;5059569;28;19915;-81
2023/01/17 07:41:18;;;;;;;;;;;2.40;99.90;;;;;;5055935;28;19913;-82
2023/01/17 07:43:44;;;;;;;;;;;2.40;99.90;;;;;;5061106;28;19924;-85
2023/01/17 07:46:09;;;;;;;;;;;2.40;99.90;;;;;;5061281;28;20636;-84
2023/01/17 07:48:35;;;;;;;;;;;2.30;99.90;;;;;;5061442;28;19925;-83
2023/01/17 07:51:00;;;;;;;;;;;2.30;99.90;;;;;;5060012;28;19974;-84
2023/01/17 07:53:27;;;;;;;;;;;2.30;99.90;;;;;;5063004;28;19909;-84
2023/01/17 07:55:53;;;;;;;;;;;2.30;99.90;;;;;;5061542;28;19909;-84
2023/01/17 07:58:19;;;;;;;;;;;2.30;99.90;;;;;;5061419;28;20389;-84
2023/01/17 08:00:44;;;;;;;;;;;2.30;99.90;;;;;;5061527;28;20312;-86
2023/01/17 08:03:14;;;;;;;;;;;2.30;99.90;;;;;;5061341;28;19917;-83
2023/01/17 08:05:51;;;;;;;;;;;2.40;99.90;;;;;;5060164;28;19938;-84
2023/01/17 08:08:16;;;;;;;;;;;2.30;99.90;;;;;;5062146;28;19908;-85
2023/01/17 08:10:42;;;;;;;;;;;2.30;99.90;;;;;;5061452;28;19923;-83
2023/01/17 08:13:07;;;;;;;;;;;2.40;99.90;;;;;;5060799;28;19916;-82
2023/01/17 08:15:32;;;;;;;;;;;2.40;99.90;;;;;;5060798;28;20040;-83
2023/01/17 08:17:59;;;;;;;;;;;2.40;99.90;;;;;;5061672;28;20016;-83
2023/01/17 08:20:24;;;;;;;;;;;2.50;99.90;;;;;;5060538;28;19931;-84
2023/01/17 08:22:54;;;;;;;;;;;2.50;99.90;;;;;;5059185;28;19967;-83
2023/01/17 08:25:20;;;;;;;;;;;2.60;99.90;;;;;;5057579;28;19919;-82
2023/01/17 08:27:46;;;;;;;;;;;2.60;99.90;;;;;;5060688;28;20007;-82
2023/01/17 08:30:11;;;;;;;;;;;2.50;99.90;;;;;;5061109;28;20383;-82
2023/01/17 08:32:39;;;;;;;;;;;2.50;99.90;;;;;;5060429;28;19912;-82
2023/01/17 08:35:08;;;;;;;;;;;2.50;99.90;;;;;;5058294;28;19963;-83
2023/01/17 08:37:34;;;;;;;;;;;2.50;99.90;;;;;;5059315;28;19958;-82
2023/01/17 08:39:59;;;;;;;;;;;2.50;99.90;;;;;;5059051;28;20397;-83
2023/01/17 08:42:24;;;;;;;;;;;2.50;99.90;;;;;;5060642;28;19917;-84
2023/01/17 08:44:50;;;;;;;;;;;2.50;99.90;;;;;;5059621;28;19908;-84
2023/01/17 08:47:15;;;;;;;;;;;2.60;99.90;;;;;;5059784;28;19909;-82
2023/01/17 08:49:42;;;;;;;;;;;2.50;99.90;;;;;;5059532;28;19909;-84
2023/01/17 08:52:08;;;;;;;;;;;2.60;99.90;;;;;;5092260;28;20365;-84
2023/01/17 08:54:33;;;;;;;;;;;2.60;99.90;;;;;;5059579;28;19935;-83
2023/01/17 08:56:59;;;;;;;;;;;2.70;99.90;;;;;;5061405;28;19913;-83
2023/01/17 08:59:24;;;;;;;;;;;2.70;99.90;;;;;;5097376;28;19909;-83
2023/01/17 09:01:51;;;;;;;;;;;2.80;99.90;;;;;;5063307;28;20312;-83
2023/01/17 09:04:16;;;;;;;;;;;2.80;99.90;;;;;;5062058;28;20013;-81
2023/01/17 09:06:44;;;;;;;;;;;2.90;99.90;;;;;;5062761;28;19947;-83
2023/01/17 09:09:10;;;;;;;;;;;2.90;99.90;;;;;;5062837;28;19913;-82
2023/01/17 09:11:36;;;;;;;;;;;2.90;99.90;;;;;;5062950;28;19909;-82
2023/01/17 09:14:01;;;;;;;;;;;2.90;99.90;;;;;;5062037;28;19909;-82
2023/01/17 09:16:27;;;;;;;;;;;3.00;99.90;;;;;;5095220;28;19909;-83
2023/01/17 09:18:54;;;;;;;;;;;3.10;99.90;;;;;;5064221;28;20304;-82
2023/01/17 09:21:19;;;;;;;;;;;3.20;99.90;;;;;;5062740;28;19908;-83
2023/01/17 09:23:45;;;;;;;;;;;3.20;99.90;;;;;;5063591;28;20038;-81
2023/01/17 09:26:19;;;;;;;;;;;3.30;99.90;;;;;;5064410;28;19908;-85
2023/01/17 09:28:45;;;;;;;;;;;3.30;99.90;;;;;;5063411;28;19999;-83
2023/01/17 09:31:11;;;;;;;;;;;3.40;99.90;;;;;;5060013;28;19967;-81
2023/01/17 09:33:42;;;;;;;;;;;3.40;99.90;;;;;;5057543;28;20315;-80
2023/01/17 09:36:09;;;;;;;;;;;3.40;99.90;;;;;;5060194;28;20691;-80
2023/01/17 09:38:35;;;;;;;;;;;3.40;99.90;;;;;;5061317;28;19951;-79
2023/01/17 09:41:01;;;;;;;;;;;3.50;99.90;;;;;;5058703;28;19912;-80
2023/01/17 09:43:43;;;;;;;;;;;3.50;99.90;;;;;;5057308;28;19917;-81
2023/01/17 09:46:27;;;;;;;;;;;3.50;99.90;;;;;;5058643;28;19920;-80
2023/01/17 09:48:58;;;;;;;;;;;3.60;99.90;;;;;;5056840;28;19917;-79
2023/01/17 09:51:23;;;;;;;;;;;3.70;99.90;;;;;;5052668;28;19909;-79
2023/01/17 09:53:49;;;;;;;;;;;3.70;99.90;;;;;;5060303;28;19999;-80
2023/01/17 09:56:35;;;;;;;;;;;3.90;99.90;;;;;;5059374;28;20372;-82
2023/01/17 09:59:09;;;;;;;;;;;4.00;99.90;;;;;;5057944;28;19999;-80
2023/01/17 10:01:49;;;;;;;;;;;4.00;99.90;;;;;;5059358;28;19951;-79
2023/01/17 10:04:26;;;;;;;;;;;4.10;99.90;;;;;;5057364;28;19967;-79
2023/01/17 10:06:51;;;;;;;;;;;4.20;99.90;;;;;;5059678;28;19909;-80
2023/01/17 10:09:27;;;;;;;;;;;4.20;99.90;;;;;;5058044;28;19931;-79
2023/01/17 10:12:08;;;;;;;;;;;4.20;99.90;;;;;;5057358;28;19909;-79
2023/01/17 10:14:43;;;;;;;;;;;4.30;99.90;;;;;;5056723;28;19909;-79
2023/01/17 10:17:24;;;;;;;;;;;4.50;99.90;;;;;;5057343;28;20399;-81
2023/01/17 10:19:59;;;;;;;;;;;4.30;99.90;;;;;;5059229;28;20337;-81
2023/01/17 10:22:32;;;;;;;;;;;4.30;99.90;;;;;;5057302;28;20392;-79
2023/01/17 10:25:06;;;;;;;;;;;4.40;99.90;;;;;;5046756;28;19912;-84
2023/01/17 10:27:33;;;;;;;;;;;4.50;99.90;;;;;;5062538;28;19924;-82
2023/01/17 10:30:01;;;;;;;;;;;4.60;99.90;;;;;;5060812;28;19955;-84
2023/01/17 10:32:41;;;;;;;;;;;4.60;99.90;;;;;;5060413;28;19909;-82
2023/01/17 10:35:14;;;;;;;;;;;4.80;99.90;;;;;;5063051;28;19961;-82
2023/01/17 10:37:42;;;;;;;;;;;4.90;99.90;;;;;;5061848;28;19939;-82
2023/01/17 10:40:17;;;;;;;;;;;5.00;99.90;;;;;;5065769;28;19976;-81
2023/01/17 10:42:49;;;;;;;;;;;5.10;99.90;;;;;;5065491;28;21563;-82
2023/01/17 10:45:38;;;;;;;;;;;4.90;99.90;;;;;;5063573;28;19909;-83
2023/01/17 10:48:10;;;;;;;;;;;4.80;99.90;;;;;;5060260;28;19909;-82
2023/01/17 10:50:56;;;;;;;;;;;4.80;99.90;;;;;;5061876;28;19944;-81
2023/01/17 10:53:45;;;;;;;;;;;4.80;99.90;;;;;;5060930;28;20599;-82
2023/01/17 10:56:12;;;;;;;;;;;4.70;99.90;;;;;;5083055;28;19912;-83
2023/01/17 10:58:38;;;;;;;;;;;4.60;99.90;;;;;;5060989;28;19948;-83
2023/01/17 11:01:13;;;;;;;;;;;4.60;99.90;;;;;;5061796;28;19939;-81
2023/01/17 11:03:39;;;;;;;;;;;4.60;99.90;;;;;;5059981;28;19944;-81
2023/01/17 11:06:16;;;;;;;;;;;4.60;99.90;;;;;;5061678;28;20293;-84
2023/01/17 11:08:49;;;;;;;;;;;4.70;99.90;;;;;;5058519;28;19924;-80
2023/01/17 11:11:15;;;;;;;;;;;4.60;99.90;;;;;;5054548;28;19909;-83
2023/01/17 11:13:40;;;;;;;;;;;4.70;99.90;;;;;;5061418;28;19913;-82
2023/01/17 11:16:08;;;;;;;;;;;4.80;99.90;;;;;;5063687;28;19915;-83
2023/01/17 11:18:35;;;;;;;;;;;4.70;99.90;;;;;;5060610;28;19991;-83
2023/01/17 11:21:17;;;;;;;;;;;4.70;99.90;;;;;;5063492;28;20285;-82
2023/01/17 11:23:44;;;;;;;;;;;4.80;99.90;;;;;;5057551;28;20013;-84
2023/01/17 11:26:11;;;;;;;;;;;4.90;99.90;;;;;;5057510;28;19913;-82
2023/01/17 11:28:38;;;;;;;;;;;5.10;99.90;;;;;;5056002;28;20374;-82
2023/01/17 11:31:22;;;;;;;;;;;5.10;99.90;;;;;;5056785;28;19908;-84
2023/01/17 11:33:54;;;;;;;;;;;5.20;99.90;;;;;;5058567;28;19976;-83
2023/01/17 11:36:29;;;;;;;;;;;5.20;99.90;;;;;;5058195;28;20039;-82
2023/01/17 11:39:13;;;;;;;;;;;5.10;99.90;;;;;;5057528;28;19916;-82
2023/01/17 11:41:39;;;;;;;;;;;5.10;99.90;;;;;;5057146;28;19995;-83
2023/01/17 11:44:24;;;;;;;;;;;5.00;99.90;;;;;;5058134;28;19917;-82
2023/01/17 11:47:07;;;;;;;;;;;5.10;99.90;;;;;;5056764;28;19912;-81
2023/01/17 11:49:33;;;;;;;;;;;5.00;99.90;;;;;;5059157;28;19909;-81
2023/01/17 11:51:58;;;;;;;;;;;4.90;99.90;;;;;;5057100;28;19941;-81
2023/01/17 11:54:27;;;;;;;;;;;5.10;99.90;;;;;;5057770;28;20007;-82
2023/01/17 11:57:00;;;;;;;;;;;5.20;99.90;;;;;;5060331;28;20007;-82
2023/01/17 11:59:25;;;;;;;;;;;5.50;99.90;;;;;;5058972;28;19908;-80
2023/01/17 12:02:03;;;;;;;;;;;5.70;99.90;;;;;;5055904;28;20403;-82
2023/01/17 12:04:46;;;;;;;;;;;6.00;99.90;;;;;;5057472;28;20288;-83
2023/01/17 12:07:27;;;;;;;;;;;6.10;99.90;;;;;;5056046;28;19908;-83
2023/01/17 12:09:55;;;;;;;;;;;6.20;99.90;;;;;;5056615;28;19909;-83
2023/01/17 12:15:17;;;;;;;;;;;6.50;99.90;;;;;;5058074;28;19958;-82
2023/01/17 12:18:04;;;;;;;;;;;6.30;99.90;;;;;;5055935;28;19909;-80
2023/01/17 12:20:30;;;;;;;;;;;6.10;99.90;;;;;;5056382;28;19913;-82
2023/01/17 12:22:56;;;;;;;;;;;5.90;99.90;;;;;;5056083;28;20003;-80
2023/01/17 12:25:41;;;;;;;;;;;5.80;99.90;;;;;;5056397;28;20358;-84
2023/01/17 12:28:13;;;;;;;;;;;5.70;99.90;;;;;;5057172;28;19915;-80
2023/01/17 12:30:54;;;;;;;;;;;5.60;99.90;;;;;;5058468;28;19909;-81
2023/01/17 12:33:22;;;;;;;;;;;5.50;99.90;;;;;;5060456;28;20254;-80
2023/01/17 12:35:54;;;;;;;;;;;5.40;99.90;;;;;;5046733;28;19909;-82
2023/01/17 12:38:24;;;;;;;;;;;5.40;99.90;;;;;;5075897;28;19913;-83
2023/01/17 12:40:54;;;;;;;;;;;5.40;99.90;;;;;;5043735;28;19913;-83
2023/01/17 12:43:28;;;;;;;;;;;5.20;99.90;;;;;;5042805;28;19924;-83
2023/01/17 12:45:54;;;;;;;;;;;5.10;99.90;;;;;;5044823;28;20457;-83
2023/01/17 12:48:21;;;;;;;;;;;5.00;99.90;;;;;;5076693;28;20043;-82
2023/01/17 12:50:49;;;;;;;;;;;5.00;99.90;;;;;;5040993;28;19916;-83
2023/01/17 12:53:22;;;;;;;;;;;5.10;99.90;;;;;;5056266;28;19976;-82
2023/01/17 12:55:51;;;;;;;;;;;5.20;99.90;;;;;;5063530;28;19909;-82
2023/01/17 12:58:21;;;;;;;;;;;5.50;99.90;;;;;;5061280;28;19915;-83
2023/01/17 13:00:50;;;;;;;;;;;5.90;99.90;;;;;;5061763;28;19909;-83
2023/01/17 13:03:19;;;;;;;;;;;6.20;99.90;;;;;;5062991;28;20549;-83
2023/01/17 13:05:45;;;;;;;;;;;6.50;99.90;;;;;;5061441;28;19931;-82
2023/01/17 13:08:14;;;;;;;;;;;6.70;99.90;;;;;;5062744;28;19909;-83
2023/01/17 13:10:43;;;;;;;;;;;6.80;99.90;;;;;;5063209;28;19967;-85
2023/01/17 13:13:15;;;;;;;;;;;6.90;99.90;;;;;;5062498;28;19916;-81
2023/01/17 13:15:41;;;;;;;;;;;6.70;99.90;;;;;;5063537;28;19915;-81
2023/01/17 13:18:21;;;;;;;;;;;6.70;99.90;;;;;;5062450;28;19941;-82
2023/01/17 13:20:51;;;;;;;;;;;6.50;99.90;;;;;;5061657;28;19909;-82
2023/01/17 13:23:40;;;;;;;;;;;6.30;99.90;;;;;;5063371;28;19913;-84
2023/01/17 13:26:12;;;;;;;;;;;6.20;99.90;;;;;;5056178;28;19909;-84
2023/01/17 13:28:53;;;;;;;;;;;6.30;99.90;;;;;;5062750;28;19909;-83
2023/01/17 13:31:18;;;;;;;;;;;6.40;99.90;;;;;;5061292;28;19909;-83
2023/01/17 13:34:01;;;;;;;;;;;6.10;99.90;;;;;;5061754;28;19915;-83
2023/01/17 13:36:28;;;;;;;;;;;5.90;99.90;;;;;;5062828;28;20286;-84
2023/01/17 13:38:57;;;;;;;;;;;5.90;99.90;;;;;;5062473;28;19909;-82
2023/01/17 13:41:22;;;;;;;;;;;5.70;99.90;;;;;;5062586;28;20373;-84
2023/01/17 13:46:51;;;;;;;;;;;5.80;99.90;;;;;;5060127;28;19916;-84
2023/01/17 13:49:22;;;;;;;;;;;6.00;99.90;;;;;;5058863;28;20015;-84
2023/01/17 13:51:59;;;;;;;;;;;6.10;99.90;;;;;;5058772;28;19909;-84
2023/01/17 13:54:30;;;;;;;;;;;6.30;99.90;;;;;;5058864;28;20388;-81
2023/01/17 13:57:14;;;;;;;;;;;6.40;99.90;;;;;;5059680;28;19955;-82
2023/01/17 13:59:39;;;;;;;;;;;6.50;99.90;;;;;;5057308;28;19913;-83
2023/01/17 14:02:25;;;;;;;;;;;6.60;99.90;;;;;;5058863;28;19909;-83
2023/01/17 14:05:09;;;;;;;;;;;6.60;99.90;;;;;;5057890;28;19920;-84
2023/01/17 14:07:41;;;;;;;;;;;6.70;99.90;;;;;;5058120;28;19995;-83
2023/01/17 14:10:29;;;;;;;;;;;6.80;99.90;;;;;;5059679;28;19916;-82
2023/01/17 14:12:55;;;;;;;;;;;6.90;99.90;;;;;;5059631;28;20285;-81
2023/01/17 14:15:21;;;;;;;;;;;6.90;99.90;;;;;;5057964;28;20289;-81
2023/01/17 14:17:49;;;;;;;;;;;6.70;99.90;;;;;;5058123;28;19909;-82
2023/01/17 14:20:16;;;;;;;;;;;6.50;99.90;;;;;;5057343;28;19996;-83
2023/01/17 14:22:51;;;;;;;;;;;6.50;99.90;;;;;;5039012;28;20255;-82
2023/01/17 14:25:49;;;;;;;;;;;6.40;99.90;;;;;;5071959;28;19909;-84
2023/01/17 14:28:22;;;;;;;;;;;6.20;99.90;;;;;;4985859;28;19917;-82
2023/01/17 14:30:53;;;;;;;;;;;6.00;99.90;;;;;;5049829;28;19913;-82
2023/01/17 14:33:23;;;;;;;;;;;6.10;99.90;;;;;;5058040;28;19950;-84
2023/01/17 14:35:51;;;;;;;;;;;6.00;99.90;;;;;;5057325;28;19909;-83
2023/01/17 14:38:21;;;;;;;;;;;5.90;99.90;;;;;;5057952;28;19909;-83
2023/01/17 14:40:54;;;;;;;;;;;5.90;99.90;;;;;;5049867;28;20351;-84
2023/01/17 14:43:21;;;;;;;;;;;6.00;99.90;;;;;;5053590;28;19952;-84
2023/01/17 14:45:47;;;;;;;;;;;6.00;99.90;;;;;;5060536;28;19909;-86
2023/01/17 14:48:20;;;;;;;;;;;5.70;99.90;;;;;;5061826;28;19913;-81
2023/01/17 14:50:47;;;;;;;;;;;5.60;99.90;;;;;;5049626;28;20328;-81
2023/01/17 14:53:13;;;;;;;;;;;5.70;99.90;;;;;;5061279;28;19935;-81
2023/01/17 14:55:47;;;;;;;;;;;5.70;99.90;;;;;;5059051;28;19919;-83
2023/01/17 14:58:16;;;;;;;;;;;5.60;99.90;;;;;;5058585;28;19935;-82
2023/01/17 15:00:42;;;;;;;;;;;5.50;99.90;;;;;;5060815;28;19931;-82
2023/01/17 15:03:09;;;;;;;;;;;5.50;99.90;;;;;;5091218;28;19943;-80
2023/01/17 15:05:39;;;;;;;;;;;5.40;99.90;;;;;;5048523;28;19986;-81
2023/01/17 15:08:09;;;;;;;;;;;5.30;99.90;;;;;;5059462;28;19963;-84
2023/01/17 15:10:35;;;;;;;;;;;5.30;99.90;;;;;;5057915;28;20003;-84
2023/01/17 15:13:06;;;;;;;;;;;5.20;99.90;;;;;;5059054;28;19966;-84
2023/01/17 15:15:34;;;;;;;;;;;5.20;99.90;;;;;;5058675;28;19912;-85
2023/01/17 15:18:08;;;;;;;;;;;5.10;99.90;;;;;;5058176;28;19913;-84
2023/01/17 15:20:35;;;;;;;;;;;5.00;99.90;;;;;;5058702;28;19947;-84
2023/01/17 15:23:01;;;;;;;;;;;4.90;99.90;;;;;;5057216;28;20284;-85
2023/01/17 15:25:27;;;;;;;;;;;4.70;99.90;;;;;;5059641;28;19936;-84
2023/01/17 15:27:53;;;;;;;;;;;4.60;99.90;;;;;;5060901;28;19920;-83
2023/01/17 15:30:18;;;;;;;;;;;4.60;99.90;;;;;;5058973;28;19909;-85
2023/01/17 15:32:48;;;;;;;;;;;4.50;99.90;;;;;;5060053;28;19917;-85
2023/01/17 15:35:17;;;;;;;;;;;4.40;99.90;;;;;;5060153;28;20361;-83
2023/01/17 15:37:43;;;;;;;;;;;4.50;99.90;;;;;;5048844;28;19917;-81
2023/01/17 15:40:17;;;;;;;;;;;4.40;99.90;;;;;;5052397;28;20352;-82
2023/01/17 15:42:43;;;;;;;;;;;4.10;99.90;;;;;;5051895;28;19924;-82
2023/01/17 15:45:14;;;;;;;;;;;3.70;99.90;;;;;;5050135;28;19912;-82
2023/01/17 15:47:40;;;;;;;;;;;3.60;99.90;;;;;;5052560;28;20285;-83
2023/01/17 15:50:18;;;;;;;;;;;3.50;99.90;;;;;;5057379;28;19920;-82
2023/01/17 15:52:50;;;;;;;;;;;3.40;99.90;;;;;;5053492;28;19964;-82
2023/01/17 15:55:22;;;;;;;;;;;3.30;99.90;;;;;;5053645;28;19913;-83
2023/01/17 15:57:48;;;;;;;;;;;3.30;99.90;;;;;;5055051;28;19912;-82
2023/01/17 16:00:14;;;;;;;;;;;3.30;99.90;;;;;;5054310;28;19966;-83
2023/01/17 16:02:50;;;;;;;;;;;3.20;99.90;;;;;;5052711;28;19928;-83
2023/01/17 16:05:22;;;;;;;;;;;3.10;99.90;;;;;;5054929;28;19924;-82